Terminal Aerodrome Forecast
Issued by NWS

Home | Current Version | Previous Version | Text Only | Print | Product List | Glossary On
Versions: 1 2 3 4 5 6 7 8 9 10 11 12 13 14 15 16 17 18 19 20 21 22 23 24 25 26 27 28 29 30 31 32 33 34 35 36
000
FTAK31 PAFA 221155
TAFAQT
TAF
PAQT 221155Z 2212/2312 VRB05KT 6SM -RA BR BKN025
     FM221500 27005KT 4SM -RA BR OVC007
     FM222000 03005KT 6SM -RA BR OVC007=

USA.gov is the U.S. government's official web portal to all federal, state and local government web resources and services.